createdAt,value
2018-09-04T00:04:19.340Z,36.47
2018-09-04T00:20:18.557Z,35.87
2018-09-04T00:25:22.348Z,33.30
2018-09-04T00:30:26.394Z,32.10
2018-09-04T00:35:30.484Z,35.37
2018-09-04T00:40:34.427Z,42.97
2018-09-04T00:45:54.306Z,41.80
2018-09-04T00:50:57.935Z,41.17
2018-09-04T00:56:01.683Z,42.07
2018-09-04T01:01:05.407Z,45.90
2018-09-04T01:06:09.219Z,45.93
2018-09-04T01:11:13.220Z,48.03
2018-09-04T01:16:17.619Z,46.37
2018-09-04T01:21:21.242Z,42.97
2018-09-04T01:26:25.138Z,39.47
2018-09-04T01:31:28.928Z,46.87
2018-09-04T01:36:40.191Z,42.77
2018-09-04T01:41:57.224Z,43.73
2018-09-04T01:47:12.903Z,44.57
2018-09-04T01:52:16.640Z,49.47
2018-09-04T01:57:20.877Z,48.00
2018-09-04T02:02:25.637Z,45.20
2018-09-04T02:07:29.479Z,44.37
2018-09-04T02:12:33.713Z,47.97
2018-09-04T02:17:37.475Z,47.07
2018-09-04T02:22:41.411Z,43.07
2018-09-04T02:27:45.396Z,44.20
2018-09-04T02:32:49.211Z,47.37
2018-09-04T02:43:24.435Z,43.00
2018-09-04T02:48:28.518Z,42.90
2018-09-04T02:53:32.487Z,39.90
2018-09-04T02:58:42.280Z,40.30
2018-09-04T03:03:45.913Z,43.03
2018-09-04T03:25:13.909Z,40.57
2018-09-04T03:30:18.222Z,42.60
2018-09-04T03:35:22.259Z,42.83
2018-09-04T03:40:26.610Z,43.73
2018-09-04T03:45:30.495Z,39.70
2018-09-04T03:50:34.750Z,42.13
2018-09-04T03:55:38.998Z,41.50
2018-09-04T04:00:42.916Z,41.77
2018-09-04T04:05:46.645Z,41.33
2018-09-04T04:10:50.562Z,42.93
2018-09-04T04:15:55.367Z,42.63
2018-09-04T04:21:00.368Z,38.10
2018-09-04T04:26:04.665Z,33.53
2018-09-04T04:31:08.489Z,38.53
2018-09-04T04:36:12.289Z,39.13
2018-09-04T04:41:16.892Z,34.50
2018-09-04T04:46:21.466Z,36.33
2018-09-04T04:51:25.638Z,36.13
2018-09-04T04:56:29.416Z,33.53
2018-09-04T05:01:33.173Z,37.83
2018-09-04T05:06:37.451Z,37.13
2018-09-04T05:11:41.675Z,36.17
2018-09-04T05:16:45.619Z,34.43
2018-09-04T05:21:49.547Z,36.03
2018-09-04T05:26:53.328Z,35.37
2018-09-04T05:32:02.439Z,36.50
2018-09-04T05:37:06.569Z,36.23
2018-09-04T05:42:15.852Z,36.40
2018-09-04T05:47:19.685Z,36.47
2018-09-04T05:52:23.612Z,38.00
2018-09-04T05:57:28.176Z,36.20
2018-09-04T06:02:32.514Z,37.40
2018-09-04T06:07:36.586Z,40.47
2018-09-04T06:12:40.581Z,39.50
2018-09-04T06:17:44.331Z,40.10
2018-09-04T06:22:48.521Z,37.60
2018-09-04T06:27:52.551Z,43.30
2018-09-04T06:32:56.984Z,44.10
2018-09-04T06:38:00.901Z,42.47
2018-09-04T06:43:04.882Z,43.40
2018-09-04T06:48:13.023Z,43.90
2018-09-04T06:53:16.947Z,44.50
2018-09-04T06:58:24.918Z,46.73
2018-09-04T07:03:28.668Z,63.47
2018-09-04T07:08:32.538Z,50.10
2018-09-04T07:13:36.299Z,55.83
2018-09-04T07:24:09.420Z,70.00
2018-09-04T07:29:17.458Z,72.20
2018-09-04T07:34:21.152Z,72.73
2018-09-04T07:39:39.287Z,74.53
2018-09-04T07:44:43.205Z,76.23
2018-09-04T07:49:47.252Z,77.13
2018-09-04T07:54:51.168Z,76.10
2018-09-04T07:59:55.152Z,77.27
2018-09-04T08:04:59.003Z,80.23
2018-09-04T08:10:02.852Z,77.73
2018-09-04T08:15:06.887Z,80.27
2018-09-04T08:20:10.720Z,81.87
2018-09-04T08:25:15.039Z,77.10
2018-09-04T08:30:19.013Z,79.03
2018-09-04T08:35:22.844Z,86.57
2018-09-04T08:40:33.087Z,81.43
2018-09-04T08:45:36.844Z,79.50
2018-09-04T08:50:40.565Z,81.73
2018-09-04T08:55:44.838Z,78.77
2018-09-04T09:00:48.696Z,77.83
2018-09-04T09:05:52.729Z,78.30
2018-09-04T09:10:56.534Z,75.40
2018-09-04T09:16:00.757Z,72.93
2018-09-04T09:21:04.616Z,78.07
2018-09-04T09:26:08.522Z,78.00
2018-09-04T09:31:12.440Z,72.80
2018-09-04T09:36:16.181Z,65.60
2018-09-04T09:41:19.969Z,68.37
2018-09-04T09:52:04.124Z,56.80
2018-09-04T09:57:08.099Z,54.90
2018-09-04T10:02:17.128Z,59.57
2018-09-04T10:07:20.958Z,54.30
2018-09-04T10:12:24.881Z,55.67
2018-09-04T10:17:28.722Z,50.57
2018-09-04T10:22:32.599Z,56.10
2018-09-04T10:27:40.231Z,54.93
2018-09-04T10:32:51.596Z,53.83
2018-09-04T10:37:55.313Z,44.60
2018-09-04T10:42:59.135Z,43.73
2018-09-04T10:48:03.040Z,50.40
2018-09-04T10:53:07.407Z,41.33
2018-09-04T10:58:12.352Z,43.50
2018-09-04T11:03:16.191Z,40.33
2018-09-04T11:08:20.712Z,37.10
2018-09-04T11:13:24.749Z,36.20
2018-09-04T11:18:32.229Z,34.83
2018-09-04T11:23:36.109Z,29.73
2018-09-04T11:28:43.678Z,34.63
2018-09-04T11:33:47.643Z,31.67
2018-09-04T11:38:53.623Z,34.63
2018-09-04T11:43:57.529Z,32.27
2018-09-04T11:54:29.535Z,35.00
2018-09-04T11:59:44.040Z,27.40
2018-09-04T12:04:48.186Z,25.20
2018-09-04T12:09:52.036Z,23.73
2018-09-04T12:14:55.896Z,22.90
2018-09-04T12:20:25.808Z,22.40
2018-09-04T12:25:29.880Z,21.83
2018-09-04T12:30:34.306Z,20.10
2018-09-04T12:35:38.148Z,20.83
2018-09-04T12:40:42.628Z,18.73
2018-09-04T12:45:57.580Z,21.00
2018-09-04T12:51:02.449Z,20.33
2018-09-04T12:56:06.503Z,22.03
2018-09-04T13:01:10.502Z,22.23
2018-09-04T13:06:14.693Z,21.17
2018-09-04T13:11:18.600Z,21.93
2018-09-04T13:16:22.618Z,21.52
2018-09-04T13:21:26.381Z,22.55
2018-09-04T13:26:30.237Z,23.90
2018-09-04T13:31:34.249Z,24.80
2018-09-04T13:36:38.073Z,28.03
2018-09-04T13:41:41.719Z,24.93
2018-09-04T13:46:45.492Z,22.22
2018-09-04T13:51:49.267Z,19.37
2018-09-04T13:56:53.049Z,23.17
2018-09-04T14:01:56.825Z,21.83
2018-09-04T14:07:00.748Z,19.80
2018-09-04T14:12:04.985Z,19.90
2018-09-04T14:17:11.877Z,18.93
2018-09-04T14:22:16.551Z,18.73
2018-09-04T14:27:23.477Z,19.17
2018-09-04T14:32:27.826Z,18.10
2018-09-04T14:37:32.011Z,18.60
2018-09-04T14:42:35.672Z,17.60
2018-09-04T14:47:39.885Z,17.87
2018-09-04T14:52:44.176Z,17.48
2018-09-04T14:57:48.144Z,17.82
2018-09-04T15:02:52.240Z,17.30
2018-09-04T15:07:56.004Z,16.50
2018-09-04T15:12:59.981Z,18.62
2018-09-04T15:18:03.860Z,18.40
2018-09-04T15:23:07.549Z,16.27
2018-09-04T15:28:11.241Z,17.90
2018-09-04T15:33:14.922Z,17.00
2018-09-04T15:38:30.274Z,17.27
2018-09-04T15:43:34.296Z,15.58
2018-09-04T15:48:38.618Z,15.72
2018-09-04T15:53:42.460Z,16.77
2018-09-04T15:58:46.748Z,17.00
2018-09-04T16:03:50.572Z,15.60
2018-09-04T16:08:56.877Z,12.53
2018-09-04T16:14:01.009Z,10.30
2018-09-04T16:19:10.885Z,10.67
2018-09-04T16:24:14.702Z,12.53
2018-09-04T16:29:20.348Z,14.67
2018-09-04T16:34:24.318Z,14.83
2018-09-04T16:39:28.515Z,15.07
2018-09-04T16:44:32.514Z,15.43
2018-09-04T16:49:36.624Z,15.80
2018-09-04T16:54:40.257Z,17.03
2018-09-04T16:59:44.105Z,18.00
2018-09-04T17:04:48.105Z,19.53
2018-09-04T17:09:51.788Z,17.67
2018-09-04T17:14:55.736Z,17.10
2018-09-04T17:19:59.763Z,16.77
2018-09-04T17:25:03.537Z,15.83
2018-09-04T17:30:07.449Z,18.20
2018-09-04T17:35:11.616Z,15.60
2018-09-04T17:40:15.712Z,14.83
2018-09-04T17:45:19.844Z,15.67
2018-09-04T17:50:23.636Z,18.73
2018-09-04T17:55:27.432Z,15.93
2018-09-04T18:00:31.467Z,16.00
2018-09-04T18:05:35.252Z,17.17
2018-09-04T18:10:39.036Z,17.27
2018-09-04T18:15:42.892Z,16.37
2018-09-04T18:20:46.612Z,16.67
2018-09-04T18:25:50.413Z,14.73
2018-09-04T18:30:54.228Z,14.80
2018-09-04T18:35:58.051Z,15.90
2018-09-04T18:41:01.862Z,15.07
2018-09-04T18:46:05.646Z,13.97
2018-09-04T18:51:09.421Z,14.17
2018-09-04T18:56:13.110Z,14.47
2018-09-04T19:01:17.023Z,16.10
2018-09-04T19:06:21.027Z,16.03
2018-09-04T19:11:24.998Z,14.37
2018-09-04T19:16:29.041Z,15.57
2018-09-04T19:21:33.088Z,14.43
2018-09-04T19:26:36.894Z,14.27
2018-09-04T19:31:40.867Z,15.43
2018-09-04T19:36:44.704Z,15.03
2018-09-04T19:41:48.816Z,13.47
2018-09-04T19:46:52.578Z,13.97
2018-09-04T19:51:56.414Z,13.83
2018-09-04T19:57:00.447Z,15.37
2018-09-04T20:02:04.370Z,14.27
2018-09-04T20:07:08.873Z,14.33
2018-09-04T20:12:12.756Z,14.17
2018-09-04T20:17:16.479Z,14.90
2018-09-04T20:22:20.204Z,15.00
2018-09-04T20:27:24.072Z,13.70
2018-09-04T20:32:28.156Z,12.93
2018-09-04T20:37:32.129Z,15.53
2018-09-04T20:42:35.837Z,13.57
2018-09-04T20:47:39.955Z,16.17
2018-09-04T20:52:43.896Z,13.80
2018-09-04T20:57:58.797Z,15.77
2018-09-04T21:03:13.702Z,16.67
2018-09-04T21:08:39.152Z,14.77
2018-09-04T21:13:43.135Z,16.07
2018-09-04T21:18:51.051Z,17.07
2018-09-04T21:23:55.060Z,14.77
2018-09-04T21:29:02.321Z,14.67
2018-09-04T21:34:06.099Z,14.13
2018-09-04T21:39:21.980Z,14.53
2018-09-04T21:44:25.958Z,14.33
2018-09-04T21:49:41.718Z,15.03
2018-09-04T21:54:45.445Z,14.27
2018-09-04T21:59:49.524Z,15.20
2018-09-04T22:04:53.308Z,15.63
2018-09-04T22:09:57.612Z,14.30
2018-09-04T22:15:02.084Z,14.73
2018-09-04T22:20:05.902Z,14.57
2018-09-04T22:25:09.531Z,15.37
2018-09-04T22:30:22.772Z,15.97
2018-09-04T22:35:27.314Z,14.40
2018-09-04T22:40:31.610Z,15.97
2018-09-04T22:45:35.708Z,19.37
2018-09-04T22:50:45.035Z,16.83
2018-09-04T22:55:48.827Z,18.70
2018-09-04T23:00:52.555Z,15.53
2018-09-04T23:06:30.126Z,15.87
2018-09-04T23:11:34.165Z,16.33
2018-09-04T23:16:38.286Z,17.30
2018-09-04T23:21:42.171Z,17.57
2018-09-04T23:26:46.244Z,16.13
2018-09-04T23:31:50.208Z,16.77
2018-09-04T23:36:54.255Z,15.33
2018-09-04T23:41:58.040Z,16.80
2018-09-04T23:47:02.140Z,15.53
2018-09-04T23:52:06.315Z,18.63
2018-09-04T23:57:10.396Z,17.60
